Брест

СКИДКИ НА СМАРТФОНЫ!

Карта отелей и гостиниц, располагающихся рядом с аэропортом Брест :

Брест Брестская область 52° 6' 29.7" N, 23° 53' 46.5" E
Код аэродрома ИКАО
UMBB
Код аэродрома RU
УМББ
Координаты
N52.10825° E023.89625°
Превышение над уровнем моря
143
Основная полоса
11/29
Курс магнитный
107,9/287,9
Длина основной ВПП
2620
Ширина основной ВПП
42
Покрытие основной ВПП
Твёрдое
Освещение ВПП
Постоянное
Тип: 
Аэродром
Класс аэродрома: 
Международный
Принадлежность: 
ГА
Статус: 
Действующий
Сайт: 
www.ban.by
E-mail аэродрома: 
fbrest@ban.by
Страна: 
Беларусь
Регион: 
Брестская область
Дополнительная информация: 
Оператор: Брестский филиал ГП "Белаэронавигация". Принимает ВС до 191 тонны.
Погода: 

Авиационная погода в Бресте

Регион: 
Погода METAR: 
UMBB 081100Z 08003MPS 7000 SCT046 SCT100 22/08 Q1024 NOSIG
Время наблюдения
2022-08-08T11:00:00Z
Температура C
22.0
Точка росы
8.0
Направление ветра
80
Скорость ветра (узлы)
6
Метео видимость
4.35
Облачность
SCT
SCT
Нижняя граница облачности (футы)
4600
10000
Явления погоды
Условия полета
MVFR
Аэропорт подробнее: 
SCT – разбросанная отдельная облачность;

Скидки на навигаторы!

Найти трансфер

С помощью этой формы Вы можете найти трансфер из аэропорта Брест в город, аэропорт или вокзал:

Погода в аэропортах:

Авиационная погода в Берлевоге

Регион: 
Погода METAR: 
ENBV 091520Z AUTO 27011KT 9999 -RA SCT034 BKN044 OVC054 13/10 Q1016
Время наблюдения
2022-08-09T15:20:00Z
Температура C
13.0
Точка росы
10.0
Направление ветра
270
Скорость ветра (узлы)
11
Метео видимость
6.21
Облачность
SCT
BKN
OVC
Нижняя граница облачности (футы)
3400
4400
5400
Явления погоды
-RA
Условия полета
VFR
SCT – разбросанная отдельная облачность; BKN – значительная (рассеянная, разорванная) облачность; OVC – сплошная облачность;
-RA - слабый дождь;

Авиационная погода в Липецке

Регион: 
Погода METAR: 
UUOL 091530Z 31003MPS 260V020 9000 -TSRA SCT///CB 24/15 Q1019 R33/290150 TEMPO VRB15MPS 1000 TSRAGR SQ BKN015CB
Время наблюдения
2022-08-09T15:30:00Z
Температура C
24.0
Точка росы
15.0
Направление ветра
310
Скорость ветра (узлы)
6
Метео видимость
5.59
Облачность
Нижняя граница облачности (футы)
Явления погоды
-TSRA
Условия полета
Аэропорт подробнее: 
TSRA - гроза с дождём;

Авиационная погода в Нижневартовске

Регион: 
Погода METAR: 
USNN 091530Z 34001MPS 1300 1100NE R21/1200N HZ FEW020CB 22/20 Q1015 R21/0///65 NOSIG RMK QFE756
Время наблюдения
2022-08-09T15:30:00Z
Температура C
22.0
Точка росы
20.0
Направление ветра
340
Скорость ветра (узлы)
2
Метео видимость
0.81
Облачность
FEW
Нижняя граница облачности (футы)
2000
Явления погоды
HZ
Условия полета
LIFR
Аэропорт подробнее: 
FEW – незначительная облачность;
HZ – мгла (видимость менее 10 км);

Авиационная погода в Сургуте

Регион: 
Погода METAR: 
USRR 091430Z 01004MPS 2300 HZ BKN022 24/19 Q1016 R25/CLRD60 TEMPO 1200 HZ RMK OBST OBSC QFE756
Время наблюдения
2022-08-09T14:30:00Z
Температура C
24.0
Точка росы
19.0
Направление ветра
10
Скорость ветра (узлы)
8
Метео видимость
1.43
Облачность
BKN
Нижняя граница облачности (футы)
2200
Явления погоды
HZ
Условия полета
IFR
Аэропорт подробнее: 
BKN – значительная (рассеянная, разорванная) облачность;
HZ – мгла (видимость менее 10 км);